VECC/CCU METAR and TAF weather

Enter ICAO airport designator
Station Type Date Time Source
VECC METAR 2019/07/20 20:00 UTC NOAA

VECC 202000Z 17007KT 3500 HZ SCT020 28/27 Q1003 NOSIG


Station Type Date Time Source
VECC Decoded METAR 2019/07/20 20:00 UTC NOAA

Calcutta / Dum Dum, India (VECC) 22-39N 088-27E 6M
Jul 20, 2019 - 04:00 PM EDT / 2019.07.20 2000 UTC
Wind: from the S (170 degrees) at 8 MPH (7 KT):0
Visibility: 2 mile(s):0
Sky conditions: partly cloudy
Weather: haze
Temperature: 82 F (28 C)
Dew Point: 80 F (27 C)
Relative Humidity: 94%
Pressure (altimeter): 29.62 in. Hg (1003 hPa)
ob: VECC 202000Z 17007KT 3500 HZ SCT020 28/27 Q1003 NOSIG
cycle: 20

Station Type Date Time Source
VECC TAF 2019/07/20 06:30 UTC NOAA

TAF VECC 200500Z 2006/2112 18008T 5000 HZ SCT018 SCT100
BECMG 2015/2017 3500 HZ
BECMG 2023/2101 00000KT 2800 BR SCT018 BKN100
BECMG 2103/2105 18008KT 4000 HZ

Example: see airport list